Time;durP1;ratioP1;P1;durP2;ratioP2;P2;SDS_P1;SDS_P2;PMS_P1;PMS_P2;Temp;Humidity;BMP_temperature;BMP_pressure;BME280_temperature;BME280_humidity;BME280_pressure;Samples;Min_cycle;Max_cycle;Signal;HPM_P1;HPM_P2
2022/07/30 00:00:06;;;;;;;;;7.00;5.50;;;;;25.20;38.80;101656.31;2385614;28;45356;-85
2022/07/30 00:01:16;;;;;;;;;6.25;6.00;;;;;25.19;38.54;101657.31;2384528;28;46479;-85
2022/07/30 00:02:27;;;;;;;;;8.00;6.75;;;;;25.16;38.45;101658.41;2384850;28;45350;-85
2022/07/30 00:03:37;;;;;;;;;5.75;5.00;;;;;25.14;38.15;101660.34;2382716;28;48523;-85
2022/07/30 00:04:48;;;;;;;;;5.25;5.25;;;;;25.13;37.72;101667.59;2385682;28;44739;-85
2022/07/30 00:05:58;;;;;;;;;7.00;7.00;;;;;25.13;37.88;101672.09;2392563;28;45596;-85
2022/07/30 00:07:09;;;;;;;;;5.00;5.00;;;;;25.10;37.64;101667.84;2394037;28;45200;-84
2022/07/30 00:08:20;;;;;;;;;7.75;6.00;;;;;25.11;37.46;101668.69;2383499;28;47713;-85
2022/07/30 00:09:31;;;;;;;;;8.25;6.75;;;;;25.10;37.27;101670.53;2385003;28;44636;-85
2022/07/30 00:10:41;;;;;;;;;6.00;6.00;;;;;25.10;37.78;101669.66;2391553;28;45203;-85
2022/07/30 00:11:52;;;;;;;;;5.00;3.50;;;;;25.08;38.04;101669.78;2394203;28;45454;-85
2022/07/30 00:13:03;;;;;;;;;8.25;6.25;;;;;25.09;38.04;101671.50;2393247;28;46018;-84
2022/07/30 00:14:13;;;;;;;;;5.00;4.00;;;;;25.08;37.88;101671.63;2384583;28;45303;-84
2022/07/30 00:15:23;;;;;;;;;6.00;6.00;;;;;25.06;38.44;101675.28;2384587;28;46211;-84
2022/07/30 00:16:34;;;;;;;;;0.00;0.00;;;;;25.07;37.66;101673.44;2384863;28;45319;-84
2022/07/30 00:17:44;;;;;;;;;5.75;5.75;;;;;25.04;37.00;101669.16;2390377;28;45409;-84
2022/07/30 00:18:55;;;;;;;;;5.00;5.00;;;;;25.05;38.21;101678.09;2393942;28;44655;-84
2022/07/30 00:20:07;;;;;;;;;4.25;4.25;;;;;25.03;37.07;101680.06;2393610;28;45325;-84
2022/07/30 00:21:17;;;;;;;;;7.00;6.00;;;;;25.03;36.34;101674.69;2393963;28;45283;-84
2022/07/30 00:22:29;;;;;;;;;5.00;5.00;;;;;25.02;36.17;101689.97;2393901;28;46675;-84
2022/07/30 00:23:39;;;;;;;;;4.00;4.00;;;;;25.00;35.65;101674.94;2394203;28;45225;-84
2022/07/30 00:24:50;;;;;;;;;6.00;5.00;;;;;24.99;36.18;101675.88;2393911;28;46521;-84
2022/07/30 00:26:00;;;;;;;;;3.50;3.50;;;;;24.99;35.98;101679.41;2391210;28;45418;-84
2022/07/30 00:27:11;;;;;;;;;4.25;4.00;;;;;25.00;35.74;101677.63;2384588;28;45223;-84
2022/07/30 00:28:22;;;;;;;;;4.00;4.00;;;;;24.99;35.70;101678.56;2385357;28;45251;-84
2022/07/30 00:29:32;;;;;;;;;4.00;3.00;;;;;24.99;35.85;101676.72;2393970;28;45427;-84
2022/07/30 00:30:43;;;;;;;;;4.25;3.00;;;;;25.02;36.44;101681.03;2386575;28;45164;-83
2022/07/30 00:31:53;;;;;;;;;7.00;4.00;;;;;25.02;35.92;101679.19;2388540;28;45583;-89
2022/07/30 00:33:03;;;;;;;;;4.00;4.00;;;;;25.02;36.57;101672.97;2391830;28;46257;-88
2022/07/30 00:34:14;;;;;;;;;4.00;4.00;;;;;25.03;35.96;101674.69;2390423;28;45587;-90
2022/07/30 00:35:24;;;;;;;;;3.00;3.00;;;;;25.03;36.41;101672.84;2376902;28;45259;-89
2022/07/30 00:36:34;;;;;;;;;4.00;4.00;;;;;25.03;36.05;101672.84;2383833;28;46662;-90
2022/07/30 00:37:45;;;;;;;;;5.75;4.00;;;;;25.05;36.31;101673.59;2389075;28;45498;-82
2022/07/30 00:38:55;;;;;;;;;7.00;5.00;;;;;25.02;35.66;101668.44;2383449;28;46775;-84
2022/07/30 00:40:08;;;;;;;;;4.00;4.00;;;;;25.06;36.31;101672.59;2374421;28;44665;-84
2022/07/30 00:41:18;;;;;;;;;5.00;5.00;;;;;25.04;36.12;101671.00;2377504;28;45473;-84
2022/07/30 00:42:47;;;;;;;;;5.00;4.75;;;;;25.03;35.49;101667.47;2384596;28;44553;-87
2022/07/30 00:43:57;;;;;;;;;6.75;5.25;;;;;25.03;35.90;101663.94;2375713;28;47294;-86
2022/07/30 00:45:09;;;;;;;;;3.75;3.75;;;;;25.04;36.07;101665.63;2378489;28;45291;-86
2022/07/30 00:46:19;;;;;;;;;7.75;5.00;;;;;25.03;35.53;101670.16;2384354;28;47669;-86
2022/07/30 00:47:29;;;;;;;;;4.25;3.50;;;;;25.03;36.01;101672.00;2383378;28;45465;-87
2022/07/30 00:48:40;;;;;;;;;6.00;4.25;;;;;25.04;35.46;101661.09;2383685;28;48420;-86
2022/07/30 00:49:50;;;;;;;;;5.75;4.25;;;;;25.03;36.38;101661.25;2374391;28;45249;-85
2022/07/30 00:51:01;;;;;;;;;4.00;4.00;;;;;25.02;35.86;101656.81;2376811;28;46264;-87
2022/07/30 00:52:12;;;;;;;;;5.25;4.75;;;;;25.06;36.51;101659.13;2379447;28;45389;-86
2022/07/30 00:53:22;;;;;;;;;4.50;4.00;;;;;25.05;36.38;101662.84;2383736;28;47161;-87
2022/07/30 00:54:33;;;;;;;;;4.25;4.25;;;;;25.07;36.60;101662.69;2384080;28;45265;-88
2022/07/30 00:55:43;;;;;;;;;4.00;4.00;;;;;25.06;35.91;101655.63;2383657;28;48001;-87
2022/07/30 00:56:53;;;;;;;;;4.50;4.00;;;;;25.08;36.71;101655.50;2375879;28;44746;-87
2022/07/30 00:58:04;;;;;;;;;8.00;5.00;;;;;25.07;35.90;101654.63;2386182;28;45542;-87
2022/07/30 00:59:14;;;;;;;;;6.00;6.00;;;;;25.08;36.30;101653.66;2391056;28;46719;-87
2022/07/30 01:00:25;;;;;;;;;7.00;5.00;;;;;25.08;37.03;101652.81;2384454;28;45449;-87
2022/07/30 01:01:36;;;;;;;;;5.00;4.00;;;;;25.08;36.16;101656.34;2384427;28;45369;-87
2022/07/30 01:02:46;;;;;;;;;6.50;4.75;;;;;25.06;36.54;101647.56;2384158;28;46337;-87
2022/07/30 01:03:56;;;;;;;;;5.00;5.00;;;;;25.05;36.96;101645.84;2383668;28;45280;-86
2022/07/30 01:05:07;;;;;;;;;5.00;5.00;;;;;25.07;36.24;101654.63;2383642;28;45362;-87
2022/07/30 01:06:18;;;;;;;;;5.75;5.00;;;;;25.05;36.35;101652.06;2383514;28;45292;-87
2022/07/30 01:07:28;;;;;;;;;5.25;4.00;;;;;25.05;36.47;101646.69;2384102;28;45513;-87
2022/07/30 01:08:38;;;;;;;;;5.25;5.25;;;;;25.04;36.75;101644.09;2390378;28;45417;-88
2022/07/30 01:09:49;;;;;;;;;4.50;4.50;;;;;25.04;36.24;101649.50;2387750;28;46568;-87
2022/07/30 01:10:59;;;;;;;;;4.75;4.50;;;;;25.04;36.12;101649.50;2383624;28;45176;-87
2022/07/30 01:12:12;;;;;;;;;4.25;4.00;;;;;25.06;35.94;101653.75;2383723;28;46331;-87
2022/07/30 01:13:22;;;;;;;;;4.00;4.00;;;;;25.05;36.34;101657.44;2383851;28;44805;-87
2022/07/30 01:14:34;;;;;;;;;6.00;4.25;;;;;25.03;36.83;101645.97;2383621;28;45427;-87
2022/07/30 01:15:44;;;;;;;;;4.75;3.75;;;;;25.05;36.59;101656.59;2384153;28;45464;-86
2022/07/30 01:16:55;;;;;;;;;5.00;5.00;;;;;25.04;37.85;101661.09;2382820;28;47179;-87
2022/07/30 01:18:10;;;;;;;;;5.00;5.00;;;;;25.03;36.61;101654.03;2383715;28;45383;-86
2022/07/30 01:21:06;;;;;;;;;9.25;6.50;;;;;25.00;36.12;101653.41;2389061;28;44786;-89
2022/07/30 01:22:28;;;;;;;;;8.25;6.75;;;;;25.00;36.24;101664.16;2392674;28;47456;-87
2022/07/30 01:23:44;;;;;;;;;6.50;6.50;;;;;24.96;36.11;101647.41;2388844;28;45246;-88
2022/07/30 01:24:57;;;;;;;;;6.25;6.25;;;;;24.98;36.72;101649.97;2386973;28;45385;-88
2022/07/30 01:26:11;;;;;;;;;5.25;4.75;;;;;24.94;36.28;101644.84;2393551;28;45306;-88
2022/07/30 01:27:22;;;;;;;;;6.00;6.00;;;;;24.93;36.68;101653.91;2393559;28;45674;-88
2022/07/30 01:28:37;;;;;;;;;6.00;6.00;;;;;24.93;36.41;101653.03;2393698;28;44568;-88
2022/07/30 01:29:49;;;;;;;;;6.75;5.25;;;;;24.93;36.27;101653.03;2392648;28;48220;-87
2022/07/30 01:31:02;;;;;;;;;8.50;6.00;;;;;24.89;36.17;101647.03;2386029;28;45292;-87
2022/07/30 01:32:13;;;;;;;;;8.00;5.00;;;;;24.90;36.56;101656.81;2387143;28;47109;-87
2022/07/30 01:33:25;;;;;;;;;6.25;5.25;;;;;24.90;36.52;101654.13;2390148;28;44959;-87
2022/07/30 01:34:38;;;;;;;;;6.00;6.00;;;;;24.88;37.22;101658.78;2373900;28;47473;-87
2022/07/30 01:35:50;;;;;;;;;5.00;5.00;;;;;24.87;36.63;101659.75;2377388;28;45464;-87
2022/07/30 01:37:03;;;;;;;;;5.25;5.25;;;;;24.86;36.54;101655.38;2390980;28;47310;-87
2022/07/30 01:38:18;;;;;;;;;7.00;7.00;;;;;24.82;36.64;101653.88;2380478;28;45230;-87
2022/07/30 01:39:29;;;;;;;;;7.00;6.00;;;;;24.84;36.72;101660.84;2370071;28;48111;-88
2022/07/30 01:40:43;;;;;;;;;7.00;5.75;;;;;24.82;37.02;101652.06;2381114;28;44638;-88
2022/07/30 01:41:55;;;;;;;;;7.00;5.00;;;;;24.81;37.35;101646.81;2374792;28;46553;-87
2022/07/30 01:43:07;;;;;;;;;6.50;6.50;;;;;24.81;37.49;101646.81;2383827;28;44700;-84
2022/07/30 01:44:19;;;;;;;;;6.75;6.75;;;;;24.81;37.25;101649.50;2378057;28;47287;-86
2022/07/30 01:45:31;;;;;;;;;9.75;5.50;;;;;24.79;37.17;101648.78;2383578;28;45228;-84
2022/07/30 01:46:42;;;;;;;;;7.25;6.25;;;;;24.79;36.82;101648.78;2375849;28;45282;-84
2022/07/30 01:47:59;;;;;;;;;5.75;5.50;;;;;24.78;36.87;101647.91;2383433;28;45299;-85
2022/07/30 01:49:10;;;;;;;;;7.00;6.00;;;;;24.77;37.25;101653.41;2380295;28;45217;-85
2022/07/30 01:50:21;;;;;;;;;6.50;5.50;;;;;24.75;37.45;101648.16;2374804;28;45239;-84
2022/07/30 01:51:33;;;;;;;;;7.00;5.00;;;;;24.76;38.26;101647.19;2374860;28;46312;-84
2022/07/30 01:52:47;;;;;;;;;6.00;6.00;;;;;24.76;38.08;101652.56;2378129;28;45450;-84
2022/07/30 01:53:58;;;;;;;;;6.00;5.00;;;;;24.74;38.17;101649.16;2383403;28;48470;-86
2022/07/30 01:55:13;;;;;;;;;6.00;6.00;;;;;24.76;38.40;101657.06;2386045;28;45262;-85
2022/07/30 01:56:25;;;;;;;;;6.00;6.00;;;;;24.72;37.42;101651.06;2375421;28;46422;-85
2022/07/30 01:57:37;;;;;;;;;7.00;6.25;;;;;24.71;37.73;101657.44;2383539;28;45339;-85
2022/07/30 01:58:50;;;;;;;;;7.00;5.50;;;;;24.69;37.80;101656.72;2383383;28;45364;-85
2022/07/30 02:00:04;;;;;;;;;7.00;6.75;;;;;24.67;37.82;101651.44;2384086;28;45257;-85
2022/07/30 02:01:14;;;;;;;;;7.00;6.25;;;;;24.66;38.67;101648.88;2382851;28;47169;-88
2022/07/30 02:02:25;;;;;;;;;8.00;7.00;;;;;24.64;38.83;101650.84;2374132;28;44675;-83
2022/07/30 02:03:36;;;;;;;;;6.00;6.00;;;;;24.63;38.25;101649.97;2374123;28;46640;-82
2022/07/30 02:04:46;;;;;;;;;5.00;5.00;;;;;24.61;38.84;101650.13;2374651;28;44632;-84
2022/07/30 02:06:23;;;;;;;;;5.50;4.75;;;;;24.60;38.78;101658.28;2374697;28;45402;-89
2022/07/30 02:07:48;;;;;;;;;5.50;5.50;;;;;24.57;38.92;101653.16;2373881;28;44758;-88
2022/07/30 02:09:02;;;;;;;;;5.25;5.25;;;;;24.56;38.85;101659.50;2383459;28;46672;-89
2022/07/30 02:10:27;;;;;;;;;5.00;5.00;;;;;24.54;39.00;101664.16;2384043;28;45278;-88
2022/07/30 02:13:18;;;;;;;;;7.75;6.00;;;;;24.46;39.24;101652.19;2383731;28;45309;-87
2022/07/30 02:14:49;;;;;;;;;7.00;5.75;;;;;24.42;39.12;101653.38;2383978;28;46375;-88
2022/07/30 02:16:13;;;;;;;;;6.25;6.25;;;;;24.41;39.30;101657.06;2392612;28;44625;-88
2022/07/30 02:17:29;;;;;;;;;8.50;6.00;;;;;24.39;38.86;101659.88;2388600;28;46405;-86
2022/07/30 02:18:42;;;;;;;;;8.75;7.50;;;;;24.35;38.80;101650.31;2378906;28;45250;-87
2022/07/30 02:19:56;;;;;;;;;6.25;6.25;;;;;24.34;39.27;101650.44;2381923;28;47189;-82
2022/07/30 02:21:09;;;;;;;;;6.75;6.50;;;;;24.32;39.27;101657.78;2389535;28;45480;-82
2022/07/30 02:22:22;;;;;;;;;7.25;6.75;;;;;24.30;39.51;101657.88;2383753;28;45391;-89
2022/07/30 02:23:40;;;;;;;;;7.00;7.00;;;;;24.27;38.99;101648.22;2392553;28;45219;-88
2022/07/30 02:24:55;;;;;;;;;6.50;6.00;;;;;24.27;39.07;101655.44;2388887;28;47166;-88
2022/07/30 02:26:07;;;;;;;;;5.00;5.00;;;;;24.25;39.22;101654.66;2373930;28;45466;-88
2022/07/30 02:27:28;;;;;;;;;8.00;6.00;;;;;24.22;39.96;101649.53;2380698;28;45456;-88
2022/07/30 02:28:42;;;;;;;;;6.25;6.25;;;;;24.21;39.52;101651.38;2385346;28;45297;-89
2022/07/30 02:29:56;;;;;;;;;6.50;6.50;;;;;24.19;39.22;101647.09;2385442;28;46522;-89
2022/07/30 02:31:08;;;;;;;;;7.50;6.00;;;;;24.18;39.53;101654.28;2388791;28;45316;-89
2022/07/30 02:32:22;;;;;;;;;9.75;6.50;;;;;24.16;39.73;101657.09;2382177;28;45307;-91
2022/07/30 02:33:36;;;;;;;;;9.00;6.75;;;;;24.13;39.26;101662.69;2385112;28;45224;-91
2022/07/30 02:34:53;;;;;;;;;7.75;7.75;;;;;24.12;39.32;101649.41;2375190;28;47889;-90
2022/07/30 02:36:06;;;;;;;;;6.75;6.75;;;;;24.10;39.17;101651.34;2375727;28;45434;-90
2022/07/30 02:37:21;;;;;;;;;6.00;6.00;;;;;24.08;39.39;101648.75;2386756;28;48040;-90
2022/07/30 02:38:34;;;;;;;;;4.75;4.00;;;;;24.06;39.47;101650.72;2384961;28;45323;-89
2022/07/30 02:39:47;;;;;;;;;5.00;5.00;;;;;24.05;39.85;101649.84;2378410;28;48327;-89
2022/07/30 02:41:00;;;;;;;;;5.75;5.50;;;;;24.05;40.08;101649.84;2384969;28;45417;-90
2022/07/30 02:42:13;;;;;;;;;5.75;5.75;;;;;24.03;40.25;101648.25;2384640;28;47153;-90
2022/07/30 02:43:25;;;;;;;;;5.25;5.25;;;;;24.04;40.94;101645.47;2378155;28;45191;-82
2022/07/30 02:44:39;;;;;;;;;6.25;6.25;;;;;24.03;40.70;101645.56;2376666;28;46505;-82
2022/07/30 02:45:49;;;;;;;;;7.00;5.75;;;;;24.02;40.86;101652.78;2376227;28;45212;-81
2022/07/30 02:47:02;;;;;;;;;5.00;5.00;;;;;24.01;41.01;101645.69;2376132;28;45445;-80
2022/07/30 02:48:14;;;;;;;;;5.75;5.75;;;;;23.98;40.45;101643.25;2376176;28;45232;-80
2022/07/30 02:49:26;;;;;;;;;3.25;3.25;;;;;23.98;40.88;101648.63;2376117;28;46781;-80
2022/07/30 02:50:38;;;;;;;;;5.00;5.00;;;;;23.97;41.07;101644.25;2379172;28;44687;-86
2022/07/30 02:51:50;;;;;;;;;8.00;6.00;;;;;23.94;41.24;101645.31;2384918;28;45665;-86
2022/07/30 02:53:04;;;;;;;;;7.00;7.00;;;;;23.93;41.07;101645.41;2394054;28;45239;-86
2022/07/30 02:54:17;;;;;;;;;7.25;5.75;;;;;23.91;41.36;101644.69;2391021;28;45422;-84
2022/07/30 02:55:30;;;;;;;;;8.00;6.00;;;;;23.90;41.36;101643.81;2378233;28;45323;-84
2022/07/30 02:56:41;;;;;;;;;5.75;5.75;;;;;23.87;41.17;101646.75;2388661;28;47310;-84
2022/07/30 02:57:52;;;;;;;;;5.00;5.00;;;;;23.85;41.33;101646.03;2389545;28;45327;-83
2022/07/30 02:59:05;;;;;;;;;4.50;4.00;;;;;23.82;41.25;101644.44;2385390;28;46551;-86
2022/07/30 03:00:15;;;;;;;;;5.25;5.25;;;;;23.82;41.45;101648.94;2382210;28;45318;-87
2022/07/30 03:01:27;;;;;;;;;5.25;5.25;;;;;23.78;41.81;101642.94;2374451;28;47164;-87
2022/07/30 03:02:39;;;;;;;;;7.75;6.75;;;;;23.76;41.24;101644.88;2368941;28;44734;-87
2022/07/30 03:03:51;;;;;;;;;4.25;4.25;;;;;23.76;41.42;101649.38;2368893;28;47119;-87
2022/07/30 03:05:06;;;;;;;;;4.25;4.25;;;;;23.73;41.56;101655.84;2384049;28;45364;-87
2022/07/30 03:06:18;;;;;;;;;6.50;6.50;;;;;23.71;41.29;101652.41;2384346;28;47220;-86
2022/07/30 03:07:30;;;;;;;;;5.00;5.00;;;;;23.70;41.71;101653.41;2377799;28;45248;-86
2022/07/30 03:08:43;;;;;;;;;5.00;5.00;;;;;23.68;41.73;101650.81;2374880;28;46778;-86
2022/07/30 03:09:55;;;;;;;;;6.00;6.00;;;;;23.66;41.53;101646.53;2375285;28;45443;-84
2022/07/30 03:11:10;;;;;;;;;7.00;6.00;;;;;23.65;41.91;101659.13;2375390;28;45498;-84
2022/07/30 03:12:22;;;;;;;;;6.00;6.00;;;;;23.62;41.98;101648.63;2375190;28;45440;-88
2022/07/30 03:13:33;;;;;;;;;5.25;5.25;;;;;23.62;42.35;101645.06;2375266;28;46403;-82
2022/07/30 03:14:43;;;;;;;;;6.00;6.00;;;;;23.60;42.38;101645.19;2375929;28;44566;-84
2022/07/30 03:15:56;;;;;;;;;9.25;6.50;;;;;23.59;42.52;101652.38;2393383;28;46474;-85
2022/07/30 03:17:10;;;;;;;;;6.75;6.50;;;;;23.57;42.47;101650.78;2391126;28;44831;-86
2022/07/30 03:18:21;;;;;;;;;3.00;1.50;;;;;23.54;41.84;101649.19;2384463;28;45402;-86
2022/07/30 03:19:35;;;;;;;;;6.00;6.00;;;;;23.52;42.03;101647.56;2384209;28;45431;-84
2022/07/30 03:20:49;;;;;;;;;7.50;7.50;;;;;23.49;41.85;101649.53;2384852;28;45670;-84
2022/07/30 03:22:01;;;;;;;;;6.25;6.25;;;;;23.48;42.04;101650.47;2385105;28;45271;-88
2022/07/30 03:23:16;;;;;;;;;8.00;7.00;;;;;23.47;42.42;101650.56;2393590;28;47329;-88
2022/07/30 03:24:27;;;;;;;;;7.25;6.25;;;;;23.46;42.51;101648.84;2384532;28;45332;-88
2022/07/30 03:25:41;;;;;;;;;7.25;5.75;;;;;23.42;42.10;101648.25;2381593;28;45524;-83
2022/07/30 03:26:52;;;;;;;;;7.25;6.50;;;;;23.42;42.02;101647.38;2379625;28;45300;-82
2022/07/30 03:28:05;;;;;;;;;7.00;6.00;;;;;23.40;42.42;101646.63;2384284;28;47169;-82
2022/07/30 03:29:18;;;;;;;;;5.75;5.75;;;;;23.37;42.73;101648.56;2378078;28;45343;-81
2022/07/30 03:30:29;;;;;;;;;8.00;6.25;;;;;23.38;42.36;101657.50;2384448;28;45499;-81
2022/07/30 03:31:40;;;;;;;;;7.00;7.00;;;;;23.32;42.97;101648.06;2393728;28;44693;-81
2022/07/30 03:32:53;;;;;;;;;5.75;5.00;;;;;23.33;42.97;101646.25;2391040;28;45355;-81
2022/07/30 03:34:05;;;;;;;;;6.00;6.00;;;;;23.31;43.04;101646.31;2376769;28;45458;-81
2022/07/30 03:35:16;;;;;;;;;7.75;6.75;;;;;23.27;42.77;101645.72;2375546;28;46748;-81
2022/07/30 03:36:28;;;;;;;;;8.00;6.25;;;;;23.28;43.43;101646.56;2375810;28;45424;-81
2022/07/30 03:37:39;;;;;;;;;7.00;7.00;;;;;23.26;43.20;101643.16;2390217;28;47023;-83
2022/07/30 03:38:50;;;;;;;;;2.50;2.25;;;;;23.24;43.23;101643.25;2394453;28;44746;-83
2022/07/30 03:40:01;;;;;;;;;8.00;5.75;;;;;23.22;43.24;101641.66;2394057;28;46172;-83
2022/07/30 03:41:13;;;;;;;;;5.25;5.00;;;;;23.21;43.77;101638.09;2394445;28;45426;-83
2022/07/30 03:42:25;;;;;;;;;5.00;4.25;;;;;23.19;43.37;101639.22;2393968;28;45223;-83
2022/07/30 03:43:38;;;;;;;;;8.50;6.50;;;;;23.19;43.69;101641.91;2394398;28;45231;-83
2022/07/30 03:44:49;;;;;;;;;6.25;6.25;;;;;23.14;43.57;101640.38;2386224;28;47665;-82
2022/07/30 03:46:02;;;;;;;;;6.00;6.00;;;;;23.15;43.96;101644.78;2384490;28;45239;-82
2022/07/30 03:47:14;;;;;;;;;8.00;6.50;;;;;23.12;44.11;101645.00;2384412;28;48189;-82
2022/07/30 03:48:26;;;;;;;;;6.50;6.50;;;;;23.10;43.91;101644.28;2384545;28;45382;-82
2022/07/30 03:49:36;;;;;;;;;6.25;6.00;;;;;23.09;44.29;101644.38;2393618;28;45683;-82
2022/07/30 03:50:48;;;;;;;;;7.50;6.25;;;;;23.08;43.58;101648.03;2394081;28;45334;-82
2022/07/30 03:52:01;;;;;;;;;5.00;5.00;;;;;23.06;43.82;101647.28;2394118;28;46426;-82
2022/07/30 03:53:12;;;;;;;;;6.75;6.75;;;;;23.03;43.88;101649.22;2394390;28;44645;-81
2022/07/30 03:54:23;;;;;;;;;5.75;5.00;;;;;23.03;43.83;101659.09;2394115;28;46483;-81
2022/07/30 03:55:35;;;;;;;;;5.50;5.50;;;;;23.01;44.44;101652.97;2394281;28;45420;-86
2022/07/30 03:56:45;;;;;;;;;6.75;6.75;;;;;22.99;43.60;101658.44;2384003;28;47303;-86
2022/07/30 03:57:56;;;;;;;;;6.75;5.25;;;;;22.99;43.88;101662.97;2386857;28;44677;-86
2022/07/30 03:59:07;;;;;;;;;7.00;7.00;;;;;22.96;44.01;101657.81;2381850;28;47315;-86
2022/07/30 04:00:17;;;;;;;;;6.50;6.50;;;;;22.93;44.04;101659.75;2387080;28;45264;-86
2022/07/30 04:01:27;;;;;;;;;7.00;6.50;;;;;22.92;44.70;101663.38;2394158;28;45627;-86
2022/07/30 04:02:42;;;;;;;;;3.75;3.75;;;;;22.91;44.22;101667.06;2393485;28;44721;-86
2022/07/30 04:03:53;;;;;;;;;7.00;7.00;;;;;22.92;44.30;101662.53;2393587;28;46566;-86
2022/07/30 04:05:04;;;;;;;;;7.75;7.75;;;;;22.90;44.84;101664.47;2394213;28;45463;-87
2022/07/30 04:06:15;;;;;;;;;6.50;6.00;;;;;22.89;44.31;101665.44;2393562;28;45491;-84
2022/07/30 04:07:25;;;;;;;;;8.50;6.50;;;;;22.88;44.77;101666.41;2394194;28;45376;-85
2022/07/30 04:08:35;;;;;;;;;9.00;6.00;;;;;22.86;44.46;101661.16;2393987;28;45435;-81
2022/07/30 04:09:46;;;;;;;;;7.25;6.00;;;;;22.86;44.88;101652.25;2394284;28;45212;-82
2022/07/30 04:10:56;;;;;;;;;6.25;5.75;;;;;22.84;44.24;101655.03;2390077;28;45545;-82
2022/07/30 04:12:07;;;;;;;;;6.75;6.00;;;;;22.84;44.61;101657.69;2384736;28;45425;-84
2022/07/30 04:13:17;;;;;;;;;5.25;5.00;;;;;22.82;44.25;101647.09;2384697;28;45351;-81
2022/07/30 04:14:40;;;;;;;;;7.25;6.25;;;;;22.79;44.27;101652.69;2384841;28;45208;-84
2022/07/30 04:16:04;;;;;;;;;7.00;7.00;;;;;22.80;44.72;101650.84;2384592;28;45243;-84
2022/07/30 04:17:21;;;;;;;;;5.25;5.25;;;;;22.78;45.15;101653.66;2384838;28;44755;-82
2022/07/30 04:18:39;;;;;;;;;6.50;6.50;;;;;22.76;45.09;101647.56;2387891;28;46329;-80
2022/07/30 04:19:58;;;;;;;;;5.50;5.50;;;;;22.77;44.70;101656.44;2393555;28;45252;-82
2022/07/30 04:21:12;;;;;;;;;8.25;6.50;;;;;22.75;44.77;101644.97;2393905;28;46285;-85
2022/07/30 04:22:29;;;;;;;;;6.25;5.50;;;;;22.74;45.04;101654.00;2393324;28;45321;-85
2022/07/30 04:23:39;;;;;;;;;7.75;6.75;;;;;22.73;44.54;101663.84;2393186;28;46659;-85
2022/07/30 04:24:51;;;;;;;;;6.00;6.00;;;;;22.70;45.17;101662.22;2384031;28;44664;-85
2022/07/30 04:26:01;;;;;;;;;5.75;4.75;;;;;22.69;44.99;101657.81;2376020;28;47317;-85
2022/07/30 04:27:13;;;;;;;;;6.25;6.25;;;;;22.67;45.63;101659.72;2377553;28;45243;-88
2022/07/30 04:28:26;;;;;;;;;8.25;5.75;;;;;22.67;45.19;101665.09;2384009;28;46550;-87
2022/07/30 04:29:37;;;;;;;;;6.25;6.25;;;;;22.66;45.74;101667.88;2384631;28;44747;-86
2022/07/30 04:30:47;;;;;;;;;10.25;8.00;;;;;22.66;45.59;101667.88;2383772;28;46949;-84
2022/07/30 04:31:58;;;;;;;;;6.00;6.00;;;;;22.63;45.53;101663.59;2384194;28;45351;-85
2022/07/30 04:33:08;;;;;;;;;7.25;7.25;;;;;22.63;45.24;101679.69;2384375;28;45283;-87
2022/07/30 04:34:19;;;;;;;;;2.50;2.50;;;;;22.60;46.06;101672.72;2386341;28;45217;-83
2022/07/30 04:35:31;;;;;;;;;6.00;6.00;;;;;22.59;45.40;101678.19;2387787;28;45236;-85
2022/07/30 04:36:42;;;;;;;;;5.00;5.00;;;;;22.60;45.17;101669.16;2384572;28;44635;-88
2022/07/30 04:37:53;;;;;;;;;5.25;5.00;;;;;22.59;45.27;101672.81;2383631;28;47153;-84
2022/07/30 04:39:03;;;;;;;;;6.25;5.25;;;;;22.59;45.50;101679.00;2374593;28;45294;-84
2022/07/30 04:40:14;;;;;;;;;6.25;6.25;;;;;22.56;45.58;101673.03;2377209;28;45390;-84
2022/07/30 04:41:24;;;;;;;;;7.00;6.50;;;;;22.54;45.42;101673.16;2384564;28;45246;-84
2022/07/30 04:42:35;;;;;;;;;5.25;5.25;;;;;22.55;45.72;101682.88;2384499;28;46485;-84
2022/07/30 04:43:45;;;;;;;;;7.00;6.50;;;;;22.53;45.92;101678.59;2384529;28;44590;-84
2022/07/30 04:44:56;;;;;;;;;7.00;7.00;;;;;22.54;46.20;101683.00;2379586;28;47125;-84
2022/07/30 04:46:06;;;;;;;;;6.75;6.75;;;;;22.51;46.09;101677.84;2377444;28;45287;-84
2022/07/30 04:47:18;;;;;;;;;6.50;5.50;;;;;22.49;45.56;101678.81;2390226;28;46474;-84
2022/07/30 04:48:29;;;;;;;;;6.75;6.00;;;;;22.52;45.67;101687.63;2393021;28;45260;-82
2022/07/30 04:49:41;;;;;;;;;5.50;5.50;;;;;22.52;45.52;101684.94;2392906;28;46346;-82
2022/07/30 04:50:56;;;;;;;;;6.50;6.50;;;;;22.51;45.83;101675.16;2393824;28;45232;-82
2022/07/30 04:52:07;;;;;;;;;7.50;5.75;;;;;22.49;45.54;101678.81;2393588;28;45570;-82
2022/07/30 04:53:18;;;;;;;;;8.00;7.00;;;;;22.49;46.42;101676.13;2393848;28;45459;-84
2022/07/30 04:54:37;;;;;;;;;7.00;6.25;;;;;22.51;46.21;101677.84;2392702;28;46658;-88
2022/07/30 04:55:48;;;;;;;;;4.50;4.50;;;;;22.49;46.43;101678.81;2384003;28;44766;-84
2022/07/30 04:56:58;;;;;;;;;9.25;8.25;;;;;22.51;46.33;101677.84;2384352;28;45537;-84
2022/07/30 04:58:11;;;;;;;;;7.75;7.75;;;;;22.48;46.55;101677.09;2378260;28;45300;-83
2022/07/30 04:59:23;;;;;;;;;6.50;6.50;;;;;22.46;46.57;101678.19;2386014;28;45345;-83
2022/07/30 05:00:35;;;;;;;;;8.50;7.75;;;;;22.49;46.59;101686.00;2392809;28;44719;-83
2022/07/30 05:01:49;;;;;;;;;8.75;8.00;;;;;22.46;46.80;101678.19;2390427;28;45372;-84
2022/07/30 05:03:03;;;;;;;;;8.00;6.75;;;;;22.45;46.55;101682.66;2376896;28;45290;-84
2022/07/30 05:04:15;;;;;;;;;9.50;6.75;;;;;22.46;46.42;101683.53;2383628;28;48353;-84
2022/07/30 05:05:27;;;;;;;;;6.00;6.00;;;;;22.45;47.02;101688.03;2383836;28;45389;-84
2022/07/30 05:06:39;;;;;;;;;8.00;7.25;;;;;22.45;46.78;101680.00;2388921;28;48159;-84
2022/07/30 05:07:50;;;;;;;;;7.50;7.50;;;;;22.46;47.23;101688.88;2391062;28;44650;-84
2022/07/30 05:09:00;;;;;;;;;7.50;7.00;;;;;22.46;46.88;101683.53;2384384;28;45231;-83
2022/07/30 05:10:12;;;;;;;;;7.00;7.00;;;;;22.47;46.72;101685.25;2392169;28;45233;-83
2022/07/30 05:11:22;;;;;;;;;8.00;8.00;;;;;22.45;46.92;101688.03;2393260;28;46420;-82
2022/07/30 05:12:36;;;;;;;;;8.00;6.00;;;;;22.44;47.10;101685.47;2393652;28;45239;-82
2022/07/30 05:13:48;;;;;;;;;8.25;7.00;;;;;22.47;46.61;101688.78;2383552;28;47371;-84
2022/07/30 05:14:59;;;;;;;;;8.00;7.25;;;;;22.45;46.86;101685.34;2379506;28;44606;-87
2022/07/30 05:16:10;;;;;;;;;7.00;7.00;;;;;22.46;47.06;101686.22;2383442;28;46152;-86
2022/07/30 05:17:20;;;;;;;;;8.25;6.25;;;;;22.44;47.53;101680.97;2374445;28;45285;-86
2022/07/30 05:18:31;;;;;;;;;8.50;6.75;;;;;22.45;46.55;101682.66;2373566;28;47207;-86
2022/07/30 05:19:41;;;;;;;;;9.00;7.75;;;;;22.45;46.41;101684.47;2383849;28;44568;-86
2022/07/30 05:20:51;;;;;;;;;7.50;7.00;;;;;22.46;46.50;101686.22;2389247;28;45480;-87
2022/07/30 05:22:02;;;;;;;;;6.00;6.00;;;;;22.46;47.29;101687.06;2393694;28;45251;-83
2022/07/30 05:23:12;;;;;;;;;8.25;8.25;;;;;22.45;46.70;101693.38;2393553;28;45604;-83
2022/07/30 05:24:23;;;;;;;;;6.75;6.00;;;;;22.46;47.37;101691.56;2392866;28;45216;-83
2022/07/30 05:25:33;;;;;;;;;10.00;7.75;;;;;22.44;47.09;101691.69;2391324;28;45254;-83
2022/07/30 05:26:44;;;;;;;;;7.25;7.25;;;;;22.46;46.70;101699.59;2393439;28;45163;-82
2022/07/30 05:27:55;;;;;;;;;7.50;6.00;;;;;22.45;47.01;101696.06;2382246;28;47101;-82
2022/07/30 05:29:06;;;;;;;;;5.50;5.50;;;;;22.46;46.76;101699.59;2386446;28;45410;-82
2022/07/30 05:30:16;;;;;;;;;7.00;7.00;;;;;22.47;47.05;101695.97;2392910;28;46176;-83
2022/07/30 05:31:26;;;;;;;;;7.00;6.50;;;;;22.48;47.34;101703.88;2393505;28;45329;-83
2022/07/30 05:32:37;;;;;;;;;7.25;7.00;;;;;22.47;47.09;101694.13;2386608;28;45407;-83
2022/07/30 05:33:47;;;;;;;;;5.75;5.75;;;;;22.48;46.83;101701.22;2384221;28;45289;-82
2022/07/30 05:34:58;;;;;;;;;5.50;5.50;;;;;22.47;46.79;101695.97;2383839;28;45350;-78
2022/07/30 05:36:08;;;;;;;;;8.25;6.50;;;;;22.49;46.97;101700.22;2383669;28;45477;-78
2022/07/30 05:37:18;;;;;;;;;7.75;5.50;;;;;22.49;46.96;101704.75;2381262;28;45394;-88
2022/07/30 05:38:29;;;;;;;;;9.25;6.25;;;;;22.51;47.17;101701.97;2374284;28;45337;-86